createdAt,value
2023-04-24T00:02:02.028Z,70.70
2023-04-24T00:04:29.325Z,71.20
2023-04-24T00:06:58.382Z,71.70
2023-04-24T00:09:25.658Z,71.80
2023-04-24T00:11:53.384Z,72.40
2023-04-24T00:14:20.464Z,72.50
2023-04-24T00:16:47.503Z,72.70
2023-04-24T00:19:14.450Z,72.40
2023-04-24T00:21:42.599Z,72.40
2023-04-24T00:24:10.230Z,72.30
2023-04-24T00:26:37.172Z,72.70
2023-04-24T00:29:04.165Z,73.20
2023-04-24T00:31:31.204Z,73.40
2023-04-24T00:33:59.172Z,72.90
2023-04-24T00:36:26.362Z,73.40
2023-04-24T00:38:53.271Z,74.30
2023-04-24T00:41:20.778Z,75.20
2023-04-24T00:43:47.684Z,75.80
2023-04-24T00:46:15.491Z,76.30
2023-04-24T00:48:42.754Z,76.80
2023-04-24T00:51:09.776Z,77.10
2023-04-24T00:53:36.664Z,76.80
2023-04-24T00:56:03.919Z,76.60
2023-04-24T00:58:32.237Z,76.60
2023-04-24T01:01:02.069Z,76.80
2023-04-24T01:03:33.293Z,77.10
2023-04-24T01:06:00.645Z,77.70
2023-04-24T01:08:29.148Z,78.40
2023-04-24T01:10:58.598Z,77.70
2023-04-24T01:13:25.576Z,77.70
2023-04-24T01:15:52.645Z,77.80
2023-04-24T01:18:19.814Z,78.00
2023-04-24T01:20:47.814Z,77.30
2023-04-24T01:23:14.902Z,76.30
2023-04-24T01:25:42.344Z,75.90
2023-04-24T01:28:09.642Z,76.20
2023-04-24T01:30:36.878Z,76.30
2023-04-24T01:33:04.074Z,76.30
2023-04-24T01:35:31.284Z,75.80
2023-04-24T01:37:58.247Z,75.40
2023-04-24T01:40:25.366Z,76.20
2023-04-24T01:42:52.570Z,77.10
2023-04-24T01:45:19.653Z,77.60
2023-04-24T01:47:47.950Z,78.30
2023-04-24T01:50:15.027Z,78.80
2023-04-24T01:52:41.975Z,79.10
2023-04-24T01:55:11.062Z,79.10
2023-04-24T01:57:38.862Z,79.30
2023-04-24T02:00:07.909Z,79.80
2023-04-24T02:02:43.109Z,80.20
2023-04-24T02:05:12.042Z,80.80
2023-04-24T02:07:38.992Z,81.20
2023-04-24T02:10:06.690Z,81.60
2023-04-24T02:12:33.886Z,81.60
2023-04-24T02:15:00.913Z,81.80
2023-04-24T02:17:27.876Z,82.20
2023-04-24T02:19:54.834Z,82.30
2023-04-24T02:22:21.741Z,82.30
2023-04-24T02:24:48.833Z,82.50
2023-04-24T02:27:16.513Z,83.00
2023-04-24T02:29:43.795Z,83.20
2023-04-24T02:32:13.991Z,83.20
2023-04-24T02:34:41.093Z,83.00
2023-04-24T02:37:08.020Z,83.00
2023-04-24T02:39:34.996Z,83.80
2023-04-24T02:42:02.657Z,84.50
2023-04-24T02:44:31.136Z,85.00
2023-04-24T02:46:58.096Z,85.20
2023-04-24T02:49:25.032Z,85.50
2023-04-24T02:51:51.956Z,85.90
2023-04-24T02:54:18.971Z,86.50
2023-04-24T02:56:45.882Z,87.00
2023-04-24T02:59:12.905Z,86.80
2023-04-24T03:01:39.977Z,86.80
2023-04-24T03:04:07.245Z,87.30
2023-04-24T03:06:36.368Z,87.80
2023-04-24T03:09:04.634Z,88.10
2023-04-24T03:11:32.528Z,88.40
2023-04-24T03:13:59.552Z,88.40
2023-04-24T03:16:26.535Z,88.00
2023-04-24T03:18:55.891Z,88.00
2023-04-24T03:21:25.519Z,88.20
2023-04-24T03:23:52.678Z,88.60
2023-04-24T03:26:19.735Z,88.80
2023-04-24T03:29:01.397Z,89.00
2023-04-24T03:31:28.632Z,89.10
2023-04-24T03:33:55.585Z,89.30
2023-04-24T03:36:22.805Z,89.50
2023-04-24T03:38:49.744Z,89.60
2023-04-24T03:41:42.827Z,89.80
2023-04-24T03:44:20.087Z,89.90
2023-04-24T03:46:47.081Z,90.40
2023-04-24T03:49:13.963Z,90.20
2023-04-24T03:51:44.138Z,90.30
2023-04-24T03:54:18.544Z,90.80
2023-04-24T03:56:46.390Z,90.90
2023-04-24T03:59:14.388Z,91.10
2023-04-24T04:01:44.329Z,91.30
2023-04-24T04:04:18.160Z,91.60
2023-04-24T04:06:47.490Z,91.90
2023-04-24T04:09:14.855Z,91.90
2023-04-24T04:11:42.327Z,91.90
2023-04-24T04:14:09.444Z,92.40
2023-04-24T04:16:40.535Z,92.50
2023-04-24T04:19:08.778Z,92.50
2023-04-24T04:21:35.816Z,92.70
2023-04-24T04:24:13.137Z,92.80
2023-04-24T04:26:48.074Z,92.90
2023-04-24T04:29:28.684Z,93.10
2023-04-24T04:31:56.428Z,93.30
2023-04-24T04:34:24.197Z,93.40
2023-04-24T04:36:52.012Z,93.50
2023-04-24T04:39:51.261Z,93.60
2023-04-24T04:42:22.085Z,93.70
2023-04-24T04:44:51.395Z,93.80
2023-04-24T04:47:27.787Z,93.90
2023-04-24T04:49:56.516Z,94.00
2023-04-24T04:52:27.610Z,94.10
2023-04-24T04:55:23.028Z,94.10
2023-04-24T04:58:10.240Z,94.20
2023-04-24T05:00:38.710Z,94.20
2023-04-24T05:03:24.929Z,94.30
2023-04-24T05:06:01.310Z,94.40
2023-04-24T05:08:30.550Z,94.50
2023-04-24T05:10:57.588Z,94.60
2023-04-24T05:13:39.272Z,94.70
2023-04-24T05:16:15.953Z,94.70
2023-04-24T05:18:43.449Z,94.70
2023-04-24T05:21:13.994Z,94.70
2023-04-24T05:23:44.617Z,94.70
2023-04-24T05:26:15.570Z,94.70
2023-04-24T05:28:42.541Z,94.70
2023-04-24T05:31:13.492Z,94.70
2023-04-24T05:33:40.786Z,94.90
2023-04-24T05:36:07.990Z,94.90
2023-04-24T05:38:35.240Z,94.90
2023-04-24T05:41:02.349Z,94.80
2023-04-24T05:43:29.313Z,94.80
2023-04-24T05:45:56.399Z,94.90
2023-04-24T05:48:23.965Z,95.00
2023-04-24T05:50:51.049Z,95.00
2023-04-24T05:53:18.332Z,95.00
2023-04-24T05:55:45.715Z,95.00
2023-04-24T05:58:13.656Z,95.00
2023-04-24T06:00:44.462Z,95.00
2023-04-24T06:03:12.535Z,95.00
2023-04-24T06:05:39.689Z,95.00
2023-04-24T06:08:07.802Z,94.90
2023-04-24T06:10:38.366Z,94.90
2023-04-24T06:13:07.748Z,95.00
2023-04-24T06:15:37.153Z,95.00
2023-04-24T06:18:07.856Z,95.00
2023-04-24T06:20:35.220Z,95.30
2023-04-24T06:23:02.985Z,94.90
2023-04-24T06:25:30.117Z,94.80
2023-04-24T06:27:57.941Z,94.80
2023-04-24T06:30:24.913Z,94.80
2023-04-24T06:32:52.236Z,94.80
2023-04-24T06:35:19.192Z,94.70
2023-04-24T06:37:47.521Z,94.60
2023-04-24T06:40:14.689Z,94.50
2023-04-24T06:42:41.652Z,94.40
2023-04-24T06:45:09.615Z,94.30
2023-04-24T06:47:36.732Z,94.30
2023-04-24T06:50:03.823Z,94.30
2023-04-24T06:52:33.906Z,94.30
2023-04-24T06:55:04.906Z,94.30
2023-04-24T06:57:32.599Z,94.20
2023-04-24T06:59:59.573Z,94.10
2023-04-24T07:02:26.970Z,93.90
2023-04-24T07:04:53.956Z,93.80
2023-04-24T07:07:23.513Z,93.60
2023-04-24T07:09:51.922Z,93.40
2023-04-24T07:12:21.540Z,93.20
2023-04-24T07:14:49.306Z,93.20
2023-04-24T07:17:16.238Z,93.10
2023-04-24T07:19:43.576Z,93.10
2023-04-24T07:22:12.720Z,93.20
2023-04-24T07:24:39.688Z,93.30
2023-04-24T07:27:06.650Z,93.20
2023-04-24T07:29:33.654Z,93.00
2023-04-24T07:32:02.702Z,92.80
2023-04-24T07:34:31.049Z,92.70
2023-04-24T07:36:58.763Z,92.60
2023-04-24T07:39:25.813Z,92.30
2023-04-24T07:41:52.960Z,92.10
2023-04-24T07:44:20.007Z,91.70
2023-04-24T07:46:46.956Z,91.40
2023-04-24T07:49:14.874Z,90.90
2023-04-24T07:51:43.131Z,90.50
2023-04-24T07:54:10.617Z,90.30
2023-04-24T07:56:40.033Z,90.20
2023-04-24T07:59:07.520Z,90.20
2023-04-24T08:01:34.413Z,90.20
2023-04-24T08:04:01.531Z,90.10
2023-04-24T08:06:31.749Z,90.10
2023-04-24T08:08:59.615Z,90.10
2023-04-24T08:11:26.942Z,90.00
2023-04-24T08:13:53.991Z,89.90
2023-04-24T08:16:20.905Z,89.80
2023-04-24T08:18:47.896Z,88.10
2023-04-24T08:21:18.145Z,87.60
2023-04-24T08:23:45.904Z,87.20
2023-04-24T08:26:13.425Z,84.60
2023-04-24T08:28:40.446Z,84.60
2023-04-24T08:31:07.396Z,85.30
2023-04-24T08:33:37.520Z,85.70
2023-04-24T08:36:06.672Z,85.90
2023-04-24T08:38:34.790Z,86.70
2023-04-24T08:41:02.766Z,87.50
2023-04-24T08:43:30.026Z,88.50
2023-04-24T08:45:58.104Z,88.00
2023-04-24T08:48:31.247Z,88.30
2023-04-24T08:51:00.567Z,88.50
2023-04-24T08:53:28.060Z,88.90
2023-04-24T08:55:57.707Z,89.10
2023-04-24T08:58:27.842Z,88.10
2023-04-24T09:00:58.475Z,88.40
2023-04-24T09:03:27.945Z,88.50
2023-04-24T09:05:56.477Z,88.40
2023-04-24T09:08:26.518Z,89.40
2023-04-24T09:10:53.936Z,90.40
2023-04-24T09:13:24.299Z,90.80
2023-04-24T09:15:51.376Z,91.20
2023-04-24T09:18:20.329Z,91.70
2023-04-24T09:21:05.910Z,92.10
2023-04-24T09:23:33.384Z,92.40
2023-04-24T09:26:02.288Z,92.60
2023-04-24T09:28:34.157Z,92.80
2023-04-24T09:31:16.680Z,93.00
2023-04-24T09:33:58.422Z,93.40
2023-04-24T09:36:38.666Z,93.70
2023-04-24T09:39:12.322Z,93.80
2023-04-24T09:41:58.753Z,93.90
2023-04-24T09:44:27.570Z,94.00
2023-04-24T09:46:59.111Z,94.10
2023-04-24T09:49:36.070Z,94.20
2023-04-24T09:52:12.972Z,94.30
2023-04-24T09:54:40.783Z,94.40
2023-04-24T09:57:10.945Z,94.30
2023-04-24T09:59:45.261Z,94.30
2023-04-24T10:02:21.993Z,94.30
2023-04-24T10:04:57.727Z,94.30
2023-04-24T10:07:27.248Z,94.20
2023-04-24T10:09:54.853Z,94.10
2023-04-24T10:12:23.172Z,94.20
2023-04-24T10:14:50.984Z,93.60
2023-04-24T10:17:18.672Z,93.10
2023-04-24T10:19:48.111Z,92.20
2023-04-24T10:22:17.740Z,91.50
2023-04-24T10:24:46.323Z,90.70
2023-04-24T10:27:16.423Z,89.80
2023-04-24T10:29:45.670Z,88.70
2023-04-24T10:32:12.680Z,87.50
2023-04-24T10:34:39.754Z,86.60
2023-04-24T10:37:07.097Z,86.40
2023-04-24T10:39:34.609Z,85.90
2023-04-24T10:42:01.830Z,84.70
2023-04-24T10:44:37.802Z,82.80
2023-04-24T10:47:05.393Z,81.30
2023-04-24T10:49:33.308Z,79.70
2023-04-24T10:52:06.689Z,79.20
2023-04-24T10:54:44.309Z,77.70
2023-04-24T10:57:20.518Z,78.80
2023-04-24T10:59:49.447Z,78.40
2023-04-24T11:02:16.891Z,79.10
2023-04-24T11:04:44.944Z,79.50
2023-04-24T11:07:12.434Z,79.50
2023-04-24T11:09:42.574Z,77.20
2023-04-24T11:12:11.993Z,76.30
2023-04-24T11:14:57.659Z,77.80
2023-04-24T11:17:40.898Z,78.10
2023-04-24T11:20:27.904Z,77.80
2023-04-24T11:22:56.492Z,77.40
2023-04-24T11:25:23.963Z,76.60
2023-04-24T11:27:51.433Z,75.00
2023-04-24T11:30:20.658Z,73.90
2023-04-24T11:32:52.529Z,74.90
2023-04-24T11:35:22.489Z,74.40
2023-04-24T11:40:24.141Z,74.50
2023-04-24T11:42:52.810Z,73.80
2023-04-24T11:45:24.075Z,74.70
2023-04-24T11:47:51.759Z,75.60
2023-04-24T11:50:20.323Z,74.50
2023-04-24T11:52:48.884Z,72.80
2023-04-24T11:55:15.768Z,72.10
2023-04-24T11:57:51.291Z,70.80
2023-04-24T12:00:19.904Z,72.70
2023-04-24T12:02:47.767Z,74.00
2023-04-24T12:05:28.883Z,74.10
2023-04-24T12:07:55.903Z,74.60
2023-04-24T12:10:24.381Z,74.70
2023-04-24T12:12:52.485Z,73.90
2023-04-24T12:15:21.207Z,73.80
2023-04-24T12:17:48.990Z,72.00
2023-04-24T12:20:16.505Z,71.10
2023-04-24T12:22:51.333Z,71.60
2023-04-24T12:25:19.861Z,71.00
2023-04-24T12:27:48.247Z,68.60
2023-04-24T12:30:17.512Z,68.20
2023-04-24T12:32:46.516Z,68.80
2023-04-24T12:35:14.411Z,68.40
2023-04-24T12:37:47.081Z,68.50
2023-04-24T12:40:15.044Z,68.50
2023-04-24T12:42:46.827Z,68.20
2023-04-24T12:45:15.076Z,67.30
2023-04-24T12:47:43.851Z,66.70
2023-04-24T12:50:13.050Z,67.50
2023-04-24T12:52:41.023Z,68.10
2023-04-24T12:55:12.947Z,67.40
2023-04-24T12:57:40.965Z,66.60
2023-04-24T13:00:09.233Z,66.30
2023-04-24T13:02:36.550Z,66.20
2023-04-24T13:05:04.040Z,65.00
2023-04-24T13:07:31.131Z,64.50
2023-04-24T13:10:01.230Z,64.50
2023-04-24T13:12:28.260Z,64.40
2023-04-24T13:14:55.395Z,64.50
2023-04-24T13:17:23.094Z,63.60
2023-04-24T13:19:52.021Z,64.20
2023-04-24T13:22:21.917Z,63.80
2023-04-24T13:24:51.958Z,63.40
2023-04-24T13:27:19.261Z,63.50
2023-04-24T13:29:46.501Z,63.90
2023-04-24T13:32:13.761Z,64.10
2023-04-24T13:34:40.770Z,61.60
2023-04-24T13:37:09.050Z,62.20
2023-04-24T13:39:36.636Z,63.00
2023-04-24T13:42:05.113Z,64.10
2023-04-24T13:44:32.522Z,62.10
2023-04-24T13:47:00.464Z,59.40
2023-04-24T13:49:27.864Z,59.90
2023-04-24T13:51:56.411Z,60.50
2023-04-24T13:54:24.812Z,62.10
2023-04-24T13:56:52.952Z,62.80
2023-04-24T13:59:22.266Z,62.00
2023-04-24T14:01:49.523Z,62.90
2023-04-24T14:04:16.762Z,63.80
2023-04-24T14:06:44.654Z,63.30
2023-04-24T14:09:11.593Z,62.30
2023-04-24T14:11:38.889Z,62.60
2023-04-24T14:14:06.676Z,62.60
2023-04-24T14:16:33.985Z,61.30
2023-04-24T14:19:00.879Z,59.30
2023-04-24T14:21:27.818Z,59.80
2023-04-24T14:23:54.675Z,60.30
2023-04-24T14:26:21.674Z,59.80
2023-04-24T14:28:48.638Z,59.90
2023-04-24T14:31:15.711Z,60.90
2023-04-24T14:33:42.810Z,62.20
2023-04-24T14:36:10.122Z,62.80
2023-04-24T14:38:37.382Z,62.50
2023-04-24T14:41:13.178Z,61.70
2023-04-24T14:43:41.481Z,61.20
2023-04-24T14:46:08.404Z,61.00
2023-04-24T14:48:35.401Z,60.20
2023-04-24T14:51:02.362Z,59.40
2023-04-24T14:53:29.547Z,59.50
2023-04-24T14:55:56.453Z,59.60
2023-04-24T14:58:23.399Z,59.40
2023-04-24T15:00:55.380Z,59.00
2023-04-24T15:03:23.301Z,58.50
2023-04-24T15:05:51.506Z,58.90
2023-04-24T15:08:18.626Z,59.30
2023-04-24T15:10:46.235Z,58.90
2023-04-24T15:13:13.523Z,59.30
2023-04-24T15:15:41.077Z,60.00
2023-04-24T15:18:09.657Z,59.40
2023-04-24T15:20:38.677Z,58.10
2023-04-24T15:23:07.234Z,58.20
2023-04-24T15:25:34.115Z,58.50
2023-04-24T15:28:01.399Z,58.50
2023-04-24T15:30:30.860Z,57.90
2023-04-24T15:32:57.839Z,57.40
2023-04-24T15:35:24.889Z,58.20
2023-04-24T15:37:52.023Z,57.50
2023-04-24T15:40:18.987Z,57.30
2023-04-24T15:42:46.674Z,58.80
2023-04-24T15:45:13.644Z,60.00
2023-04-24T15:47:41.010Z,60.60
2023-04-24T15:50:14.505Z,60.40
2023-04-24T15:52:41.898Z,60.80
2023-04-24T15:55:09.154Z,60.80
2023-04-24T15:57:36.460Z,61.10
2023-04-24T16:00:07.787Z,62.10
2023-04-24T16:02:41.037Z,63.00
2023-04-24T16:05:08.848Z,63.40
2023-04-24T16:07:36.217Z,63.30
2023-04-24T16:10:03.331Z,63.30
2023-04-24T16:12:30.321Z,63.90
2023-04-24T16:14:57.295Z,64.30
2023-04-24T16:17:24.414Z,64.80
2023-04-24T16:19:51.365Z,64.90
2023-04-24T16:22:18.340Z,65.10
2023-04-24T16:24:47.165Z,65.40
2023-04-24T16:27:15.069Z,65.50
2023-04-24T16:29:42.103Z,65.60
2023-04-24T16:32:09.770Z,66.30
2023-04-24T16:34:36.979Z,66.10
2023-04-24T16:37:04.984Z,66.30
2023-04-24T16:39:32.012Z,66.50
2023-04-24T16:41:59.899Z,66.70
2023-04-24T16:44:27.625Z,67.10
2023-04-24T16:46:54.593Z,67.40
2023-04-24T16:49:21.626Z,67.80
2023-04-24T16:51:48.494Z,67.90
2023-04-24T16:54:15.526Z,67.80
2023-04-24T16:56:42.435Z,68.20
2023-04-24T16:59:09.444Z,68.40
2023-04-24T17:01:36.407Z,68.20
2023-04-24T17:04:03.581Z,67.70
2023-04-24T17:06:31.479Z,68.00
2023-04-24T17:09:00.479Z,68.20
2023-04-24T17:11:29.918Z,68.30
2023-04-24T17:13:59.907Z,68.40
2023-04-24T17:16:27.505Z,68.50
2023-04-24T17:18:54.550Z,69.10
2023-04-24T17:21:21.445Z,69.20
2023-04-24T17:23:48.414Z,69.10
2023-04-24T17:26:15.342Z,69.40
2023-04-24T17:28:42.396Z,70.00
2023-04-24T17:31:09.284Z,70.00
2023-04-24T17:33:36.252Z,69.70
2023-04-24T17:36:03.282Z,69.80
2023-04-24T17:38:30.649Z,70.30
2023-04-24T17:40:58.431Z,70.30
2023-04-24T17:43:26.104Z,70.60
2023-04-24T17:45:58.042Z,70.80
2023-04-24T17:48:26.648Z,70.70
2023-04-24T17:50:53.994Z,70.80
2023-04-24T17:53:22.817Z,70.70
2023-04-24T17:55:49.780Z,70.50
2023-04-24T17:58:18.935Z,71.00
2023-04-24T18:00:46.149Z,71.30
2023-04-24T18:03:13.363Z,71.50
2023-04-24T18:05:40.596Z,71.50
2023-04-24T18:08:08.041Z,71.50
2023-04-24T18:10:38.009Z,71.60
2023-04-24T18:13:05.703Z,71.40
2023-04-24T18:15:32.898Z,71.50
2023-04-24T18:17:59.958Z,71.60
2023-04-24T18:20:27.239Z,71.90
2023-04-24T18:22:54.370Z,72.20
2023-04-24T18:25:26.630Z,72.60
2023-04-24T18:27:55.833Z,72.80
2023-04-24T18:30:24.181Z,72.60
2023-04-24T18:32:53.111Z,72.90
2023-04-24T18:35:21.350Z,72.90
2023-04-24T18:37:48.819Z,73.20
2023-04-24T18:40:16.469Z,73.30
2023-04-24T18:42:43.945Z,73.40
2023-04-24T18:45:13.862Z,73.40
2023-04-24T18:47:42.822Z,73.50
2023-04-24T18:50:10.523Z,73.50
2023-04-24T18:52:37.618Z,73.60
2023-04-24T18:55:06.879Z,74.10
2023-04-24T18:57:34.392Z,74.70
2023-04-24T19:00:01.304Z,75.50
2023-04-24T19:02:28.670Z,76.10
2023-04-24T19:04:55.762Z,76.70
2023-04-24T19:07:22.892Z,77.80
2023-04-24T19:09:49.775Z,78.20
2023-04-24T19:12:16.900Z,78.70
2023-04-24T19:14:43.852Z,79.00
2023-04-24T19:17:11.172Z,79.20
2023-04-24T19:19:38.219Z,79.20
2023-04-24T19:22:05.413Z,79.30
2023-04-24T19:24:33.719Z,79.40
2023-04-24T19:27:01.784Z,79.40
2023-04-24T19:29:28.768Z,79.70
2023-04-24T19:31:57.939Z,79.90
2023-04-24T19:34:26.269Z,80.00
2023-04-24T19:36:53.444Z,80.10
2023-04-24T19:39:20.376Z,80.20
2023-04-24T19:41:47.560Z,80.30
2023-04-24T19:44:15.598Z,80.50
2023-04-24T19:46:43.086Z,80.60
2023-04-24T19:49:10.146Z,80.80
2023-04-24T19:51:38.632Z,81.00
2023-04-24T19:54:06.361Z,81.20
2023-04-24T19:56:33.720Z,81.40
2023-04-24T19:59:01.086Z,81.50
2023-04-24T20:01:28.186Z,81.50
2023-04-24T20:03:55.411Z,81.80
2023-04-24T20:06:22.467Z,82.00
2023-04-24T20:08:49.613Z,82.30
2023-04-24T20:11:16.793Z,82.60
2023-04-24T20:13:43.672Z,82.80
2023-04-24T20:16:11.546Z,82.80
2023-04-24T20:18:39.213Z,82.90
2023-04-24T20:21:06.194Z,82.70
2023-04-24T20:23:33.246Z,82.50
2023-04-24T20:26:01.087Z,82.30
2023-04-24T20:28:30.185Z,82.20
2023-04-24T20:30:58.923Z,82.10
2023-04-24T20:33:28.019Z,82.20
2023-04-24T20:35:55.650Z,82.30
2023-04-24T20:38:22.903Z,82.30
2023-04-24T20:40:57.726Z,82.10
2023-04-24T20:43:28.875Z,82.00
2023-04-24T20:45:58.704Z,81.90
2023-04-24T20:48:26.702Z,81.80
2023-04-24T20:50:54.646Z,81.70
2023-04-24T20:53:22.040Z,81.70
2023-04-24T20:55:49.195Z,81.80
2023-04-24T20:58:18.315Z,81.80
2023-04-24T21:00:45.566Z,81.70
2023-04-24T21:03:12.782Z,81.60
2023-04-24T21:05:39.810Z,81.50
2023-04-24T21:08:06.769Z,81.50
2023-04-24T21:10:33.740Z,81.60
2023-04-24T21:13:01.248Z,81.60
2023-04-24T21:15:28.360Z,81.50
2023-04-24T21:17:55.414Z,81.40
2023-04-24T21:20:22.497Z,81.50
2023-04-24T21:22:49.477Z,81.50
2023-04-24T21:25:16.565Z,81.40
2023-04-24T21:27:43.669Z,81.40
2023-04-24T21:30:11.727Z,81.40
2023-04-24T21:32:40.505Z,81.40
2023-04-24T21:35:07.978Z,81.40
2023-04-24T21:37:36.109Z,81.50
2023-04-24T21:40:04.864Z,81.50
2023-04-24T21:42:31.989Z,82.20
2023-04-24T21:44:58.910Z,81.50
2023-04-24T21:47:25.810Z,81.50
2023-04-24T21:49:52.825Z,81.50
2023-04-24T21:52:20.216Z,81.60
2023-04-24T21:54:47.211Z,81.70
2023-04-24T21:57:14.139Z,81.80
2023-04-24T21:59:41.452Z,82.00
2023-04-24T22:02:08.361Z,82.10
2023-04-24T22:04:35.609Z,82.20
2023-04-24T22:07:02.807Z,82.50
2023-04-24T22:09:29.886Z,82.60
2023-04-24T22:11:56.830Z,82.80
2023-04-24T22:14:23.789Z,83.60
2023-04-24T22:16:50.670Z,83.10
2023-04-24T22:19:17.715Z,83.20
2023-04-24T22:21:44.834Z,83.30
2023-04-24T22:24:11.781Z,83.40
2023-04-24T22:26:38.650Z,83.60
2023-04-24T22:29:05.702Z,83.70
2023-04-24T22:31:32.854Z,83.80
2023-04-24T22:33:59.861Z,84.00
2023-04-24T22:36:27.362Z,84.20
2023-04-24T22:38:54.656Z,84.30
2023-04-24T22:41:22.080Z,84.40
2023-04-24T22:43:49.551Z,84.50
2023-04-24T22:46:17.188Z,84.70
2023-04-24T22:48:44.986Z,84.80
2023-04-24T22:51:11.855Z,85.00
2023-04-24T22:53:38.733Z,85.30
2023-04-24T22:56:06.320Z,85.30
2023-04-24T22:58:33.396Z,85.30
2023-04-24T23:01:00.293Z,85.30
2023-04-24T23:03:27.431Z,85.60
2023-04-24T23:05:54.700Z,85.70
2023-04-24T23:08:21.629Z,86.00
2023-04-24T23:10:48.574Z,86.20
2023-04-24T23:13:15.700Z,86.40
2023-04-24T23:15:42.613Z,86.90
2023-04-24T23:18:09.644Z,86.90
2023-04-24T23:20:36.760Z,87.20
2023-04-24T23:23:03.697Z,87.40
2023-04-24T23:25:32.707Z,87.60
2023-04-24T23:27:59.679Z,87.80
2023-04-24T23:30:26.608Z,88.20
2023-04-24T23:32:53.564Z,88.40
2023-04-24T23:35:20.589Z,88.80
2023-04-24T23:37:48.265Z,89.00
2023-04-24T23:40:15.296Z,89.20
2023-04-24T23:42:42.247Z,89.10
2023-04-24T23:45:10.937Z,89.40
2023-04-24T23:47:38.238Z,89.50
2023-04-24T23:50:05.815Z,89.60
2023-04-24T23:52:32.805Z,89.80
2023-04-24T23:54:59.865Z,89.90
2023-04-24T23:57:26.861Z,89.90
2023-04-24T23:59:53.804Z,90.00
